Jonestwn, Pennsylvania
Current Conditions -  °F | °C
As of 9:58 PM on Wednesday 22 Oct 2014 (Local Time) from KMUI Reporting Station
Overcast Overcast  
Wind Chill: 51°   Ceiling: 2200
Heat Index: 51°   Visibility: 10mi
Dew Point: 47°   Wind: 8mph
Humidity: 86%   Direction: 360°N
Pressure: 29.95"   Gusts: 21mph
Location:  40.4723°N, 76.5465°W
Report Text: KMUI 230158Z AUTO 36007G18KT 10SM OVC022 11/09 A2995 RMK AO2 SLP145 T01080085 $
Loading
Personal Weather Stations






























Interactive Weather Map
Tropical Storm Tracking
New forecast layout! Learn more

10-Day Weather Forecast

Advertisements
Track Severe Weather on mobile